Impacts TAF Board
For situational awareness. Not to be used for flight planning purposes.
IDs:

KBOS - Boston/Logan Intl, MA, US

Issued at 1123 UTC 23 Mar 2019
Updated at 1230 UTC 23 Mar 2019
Potential Impact None Slight Moderate High
Time<<24/01Z 24/02Z 24/03Z 24/04Z 24/05Z 24/06Z 24/07Z 24/08Z 24/09Z 24/10Z 24/11Z 24/12Z 24/13Z>>
Type PRVL PRVL PRVL PRVL PRVL PRVL PRVL PRVL PRVL PRVL PRVL PRVL PRVL
VIS >6 >6 >6 >6 >6 >6 >6 >6 >6 >6 >6 >6 >6
CIG -- -- -- -- -- -- -- -- -- -- -- -- --
Cover SCT SCT SCT SCT SCT SCT SCT SCT SCT SKC SKC SKC SKC
FltCat VFR VFR VFR VFR VFR VFR VFR VFR VFR VFR VFR VFR VFR
WX -- -- -- -- -- -- -- -- -- -- -- -- --
WDir 290 290 290 290 290 290 290 290 290 260 260 260 260
WSpd 18 18 18 18 18 18 18 18 18 9 9 9 10
WGst 32 32 32 32 32 32 32 32 32 -- -- -- 18
Raw TAF
KBOS 231123Z 2312/2418 29019G34KT P6SM VCSH OVC045
  FM231400 29018G32KT P6SM SCT070
  FM241000 26009KT P6SM SKC
  FM241300 26010G18KT P6SM SKC


METAR Board
Radar Display
Forecast Discussion
For situational awareness. Not to be used for flight planning purposes.